sensor_id;sensor_type;location;lat;lon;timestamp;P1;durP1;ratioP1;P2;durP2;ratioP2
21237;SDS011;10777;50.828;3.264;2022-08-03T00:01:25;8.77;;;1.20;;
21237;SDS011;10777;50.828;3.264;2022-08-03T00:03:51;12.73;;;1.77;;
21237;SDS011;10777;50.828;3.264;2022-08-03T00:06:17;9.35;;;1.42;;
21237;SDS011;10777;50.828;3.264;2022-08-03T00:08:42;9.10;;;1.75;;
21237;SDS011;10777;50.828;3.264;2022-08-03T00:11:08;5.95;;;1.98;;
21237;SDS011;10777;50.828;3.264;2022-08-03T00:13:34;6.65;;;1.50;;
21237;SDS011;10777;50.828;3.264;2022-08-03T00:16:00;5.90;;;1.40;;
21237;SDS011;10777;50.828;3.264;2022-08-03T00:18:25;7.25;;;1.30;;
21237;SDS011;10777;50.828;3.264;2022-08-03T00:20:51;9.48;;;1.58;;
21237;SDS011;10777;50.828;3.264;2022-08-03T00:23:17;9.63;;;1.30;;
21237;SDS011;10777;50.828;3.264;2022-08-03T00:25:42;7.68;;;1.40;;
21237;SDS011;10777;50.828;3.264;2022-08-03T00:28:08;7.40;;;1.20;;
21237;SDS011;10777;50.828;3.264;2022-08-03T00:30:34;5.82;;;1.38;;
21237;SDS011;10777;50.828;3.264;2022-08-03T00:33:00;11.85;;;1.30;;
21237;SDS011;10777;50.828;3.264;2022-08-03T00:35:27;10.80;;;1.30;;
21237;SDS011;10777;50.828;3.264;2022-08-03T00:37:53;6.82;;;1.75;;
21237;SDS011;10777;50.828;3.264;2022-08-03T00:40:19;4.75;;;1.65;;
21237;SDS011;10777;50.828;3.264;2022-08-03T00:42:46;8.25;;;1.70;;
21237;SDS011;10777;50.828;3.264;2022-08-03T00:45:17;13.05;;;1.83;;
21237;SDS011;10777;50.828;3.264;2022-08-03T00:47:44;4.65;;;1.40;;
21237;SDS011;10777;50.828;3.264;2022-08-03T00:50:10;7.88;;;1.63;;
21237;SDS011;10777;50.828;3.264;2022-08-03T00:52:36;6.65;;;1.33;;
21237;SDS011;10777;50.828;3.264;2022-08-03T00:55:03;8.27;;;1.58;;
21237;SDS011;10777;50.828;3.264;2022-08-03T00:57:29;8.00;;;1.73;;
21237;SDS011;10777;50.828;3.264;2022-08-03T00:59:57;8.68;;;1.45;;
21237;SDS011;10777;50.828;3.264;2022-08-03T01:02:24;8.02;;;2.25;;
21237;SDS011;10777;50.828;3.264;2022-08-03T01:04:52;9.85;;;1.92;;
21237;SDS011;10777;50.828;3.264;2022-08-03T01:07:36;6.95;;;1.33;;
21237;SDS011;10777;50.828;3.264;2022-08-03T01:10:40;5.47;;;1.13;;
21237;SDS011;10777;50.828;3.264;2022-08-03T01:13:21;9.27;;;1.58;;
21237;SDS011;10777;50.828;3.264;2022-08-03T01:15:58;9.73;;;1.40;;
21237;SDS011;10777;50.828;3.264;2022-08-03T01:22:00;5.55;;;1.40;;
21237;SDS011;10777;50.828;3.264;2022-08-03T01:24:44;5.38;;;1.38;;
21237;SDS011;10777;50.828;3.264;2022-08-03T01:27:22;8.18;;;1.67;;
21237;SDS011;10777;50.828;3.264;2022-08-03T01:30:10;10.50;;;1.65;;
21237;SDS011;10777;50.828;3.264;2022-08-03T01:32:43;5.43;;;1.23;;
21237;SDS011;10777;50.828;3.264;2022-08-03T01:35:21;4.25;;;1.35;;
21237;SDS011;10777;50.828;3.264;2022-08-03T01:37:55;7.47;;;1.70;;
21237;SDS011;10777;50.828;3.264;2022-08-03T01:40:24;6.20;;;1.67;;
21237;SDS011;10777;50.828;3.264;2022-08-03T01:42:53;4.43;;;1.38;;
21237;SDS011;10777;50.828;3.264;2022-08-03T01:45:21;10.90;;;1.60;;
21237;SDS011;10777;50.828;3.264;2022-08-03T01:47:48;5.10;;;1.58;;
21237;SDS011;10777;50.828;3.264;2022-08-03T01:50:15;7.07;;;1.48;;
21237;SDS011;10777;50.828;3.264;2022-08-03T01:52:46;8.52;;;1.92;;
21237;SDS011;10777;50.828;3.264;2022-08-03T01:55:13;13.32;;;2.55;;
21237;SDS011;10777;50.828;3.264;2022-08-03T01:57:42;4.38;;;1.60;;
21237;SDS011;10777;50.828;3.264;2022-08-03T02:00:09;9.73;;;2.45;;
21237;SDS011;10777;50.828;3.264;2022-08-03T02:02:36;8.88;;;1.95;;
21237;SDS011;10777;50.828;3.264;2022-08-03T02:05:03;12.98;;;2.22;;
21237;SDS011;10777;50.828;3.264;2022-08-03T02:07:31;6.50;;;2.05;;
21237;SDS011;10777;50.828;3.264;2022-08-03T02:09:59;12.63;;;2.08;;
21237;SDS011;10777;50.828;3.264;2022-08-03T02:12:27;12.68;;;2.25;;
21237;SDS011;10777;50.828;3.264;2022-08-03T02:14:53;13.68;;;2.28;;
21237;SDS011;10777;50.828;3.264;2022-08-03T02:17:20;9.57;;;2.08;;
21237;SDS011;10777;50.828;3.264;2022-08-03T02:19:49;9.60;;;2.63;;
21237;SDS011;10777;50.828;3.264;2022-08-03T02:22:15;15.00;;;2.65;;
21237;SDS011;10777;50.828;3.264;2022-08-03T02:24:42;11.10;;;2.70;;
21237;SDS011;10777;50.828;3.264;2022-08-03T02:27:13;8.93;;;2.80;;
21237;SDS011;10777;50.828;3.264;2022-08-03T02:29:47;8.45;;;2.85;;
21237;SDS011;10777;50.828;3.264;2022-08-03T02:32:20;9.80;;;3.03;;
21237;SDS011;10777;50.828;3.264;2022-08-03T02:34:53;17.25;;;4.20;;
21237;SDS011;10777;50.828;3.264;2022-08-03T02:37:22;11.57;;;3.00;;
21237;SDS011;10777;50.828;3.264;2022-08-03T02:39:54;14.55;;;3.35;;
21237;SDS011;10777;50.828;3.264;2022-08-03T02:42:25;9.98;;;3.40;;
21237;SDS011;10777;50.828;3.264;2022-08-03T02:44:52;14.93;;;3.60;;
21237;SDS011;10777;50.828;3.264;2022-08-03T02:47:21;11.55;;;3.22;;
21237;SDS011;10777;50.828;3.264;2022-08-03T02:49:48;15.68;;;3.25;;
21237;SDS011;10777;50.828;3.264;2022-08-03T02:52:16;11.07;;;2.90;;
21237;SDS011;10777;50.828;3.264;2022-08-03T02:54:44;15.18;;;3.33;;
21237;SDS011;10777;50.828;3.264;2022-08-03T02:57:13;9.13;;;2.88;;
21237;SDS011;10777;50.828;3.264;2022-08-03T02:59:40;16.37;;;3.20;;
21237;SDS011;10777;50.828;3.264;2022-08-03T03:02:07;10.25;;;3.33;;
21237;SDS011;10777;50.828;3.264;2022-08-03T03:04:34;10.43;;;3.03;;
21237;SDS011;10777;50.828;3.264;2022-08-03T03:07:00;10.82;;;3.00;;
21237;SDS011;10777;50.828;3.264;2022-08-03T03:09:27;17.77;;;2.92;;
21237;SDS011;10777;50.828;3.264;2022-08-03T03:11:54;13.88;;;3.28;;
21237;SDS011;10777;50.828;3.264;2022-08-03T03:14:21;10.13;;;2.90;;
21237;SDS011;10777;50.828;3.264;2022-08-03T03:16:47;11.52;;;3.20;;
21237;SDS011;10777;50.828;3.264;2022-08-03T03:19:13;13.57;;;3.35;;
21237;SDS011;10777;50.828;3.264;2022-08-03T03:21:40;14.60;;;3.28;;
21237;SDS011;10777;50.828;3.264;2022-08-03T03:24:08;10.32;;;3.05;;
21237;SDS011;10777;50.828;3.264;2022-08-03T03:26:34;11.65;;;3.35;;
21237;SDS011;10777;50.828;3.264;2022-08-03T03:29:00;17.92;;;3.50;;
21237;SDS011;10777;50.828;3.264;2022-08-03T03:31:27;11.50;;;3.10;;
21237;SDS011;10777;50.828;3.264;2022-08-03T03:33:53;14.27;;;3.30;;
21237;SDS011;10777;50.828;3.264;2022-08-03T03:36:22;10.95;;;2.95;;
21237;SDS011;10777;50.828;3.264;2022-08-03T03:38:47;8.65;;;2.72;;
21237;SDS011;10777;50.828;3.264;2022-08-03T03:41:13;10.65;;;3.15;;
21237;SDS011;10777;50.828;3.264;2022-08-03T03:43:39;11.95;;;3.15;;
21237;SDS011;10777;50.828;3.264;2022-08-03T03:46:05;16.05;;;3.60;;
21237;SDS011;10777;50.828;3.264;2022-08-03T03:48:31;9.93;;;3.67;;
21237;SDS011;10777;50.828;3.264;2022-08-03T03:50:58;16.67;;;3.72;;
21237;SDS011;10777;50.828;3.264;2022-08-03T03:53:24;19.30;;;3.58;;
21237;SDS011;10777;50.828;3.264;2022-08-03T03:55:51;10.60;;;3.88;;
21237;SDS011;10777;50.828;3.264;2022-08-03T03:58:18;13.75;;;3.40;;
21237;SDS011;10777;50.828;3.264;2022-08-03T04:00:45;8.32;;;3.00;;
21237;SDS011;10777;50.828;3.264;2022-08-03T04:03:11;10.52;;;3.83;;
21237;SDS011;10777;50.828;3.264;2022-08-03T04:05:37;15.15;;;3.03;;
21237;SDS011;10777;50.828;3.264;2022-08-03T04:08:23;8.95;;;3.15;;
21237;SDS011;10777;50.828;3.264;2022-08-03T04:11:11;9.82;;;3.13;;
21237;SDS011;10777;50.828;3.264;2022-08-03T04:13:43;10.13;;;2.83;;
21237;SDS011;10777;50.828;3.264;2022-08-03T04:16:23;8.20;;;3.28;;
21237;SDS011;10777;50.828;3.264;2022-08-03T04:18:52;12.30;;;3.90;;
21237;SDS011;10777;50.828;3.264;2022-08-03T04:21:21;9.23;;;3.70;;
21237;SDS011;10777;50.828;3.264;2022-08-03T04:23:49;11.70;;;4.35;;
21237;SDS011;10777;50.828;3.264;2022-08-03T04:26:19;18.00;;;4.13;;
21237;SDS011;10777;50.828;3.264;2022-08-03T04:28:46;13.40;;;4.63;;
21237;SDS011;10777;50.828;3.264;2022-08-03T04:31:15;14.23;;;5.22;;
21237;SDS011;10777;50.828;3.264;2022-08-03T04:33:44;15.00;;;4.70;;
21237;SDS011;10777;50.828;3.264;2022-08-03T04:36:12;9.70;;;4.67;;
21237;SDS011;10777;50.828;3.264;2022-08-03T04:38:53;17.70;;;5.22;;
21237;SDS011;10777;50.828;3.264;2022-08-03T04:41:25;18.60;;;5.40;;
21237;SDS011;10777;50.828;3.264;2022-08-03T04:43:52;19.90;;;5.27;;
21237;SDS011;10777;50.828;3.264;2022-08-03T04:46:21;24.00;;;5.50;;
21237;SDS011;10777;50.828;3.264;2022-08-03T04:48:49;13.83;;;5.20;;
21237;SDS011;10777;50.828;3.264;2022-08-03T04:51:15;16.20;;;5.60;;
21237;SDS011;10777;50.828;3.264;2022-08-03T04:53:42;19.63;;;5.28;;
21237;SDS011;10777;50.828;3.264;2022-08-03T04:56:08;19.73;;;5.50;;
21237;SDS011;10777;50.828;3.264;2022-08-03T04:58:34;13.60;;;5.13;;
21237;SDS011;10777;50.828;3.264;2022-08-03T05:00:59;19.10;;;5.45;;
21237;SDS011;10777;50.828;3.264;2022-08-03T05:03:25;17.17;;;5.10;;
21237;SDS011;10777;50.828;3.264;2022-08-03T05:05:51;10.93;;;4.87;;
21237;SDS011;10777;50.828;3.264;2022-08-03T05:08:18;15.07;;;4.90;;
21237;SDS011;10777;50.828;3.264;2022-08-03T05:10:44;13.85;;;5.05;;
21237;SDS011;10777;50.828;3.264;2022-08-03T05:13:10;14.30;;;4.47;;
21237;SDS011;10777;50.828;3.264;2022-08-03T05:15:37;17.13;;;4.50;;
21237;SDS011;10777;50.828;3.264;2022-08-03T05:18:03;16.85;;;4.40;;
21237;SDS011;10777;50.828;3.264;2022-08-03T05:20:29;9.65;;;4.15;;
21237;SDS011;10777;50.828;3.264;2022-08-03T05:22:55;12.68;;;4.30;;
21237;SDS011;10777;50.828;3.264;2022-08-03T05:25:21;16.23;;;4.30;;
21237;SDS011;10777;50.828;3.264;2022-08-03T05:27:47;16.63;;;4.57;;
21237;SDS011;10777;50.828;3.264;2022-08-03T05:30:13;13.10;;;4.15;;
21237;SDS011;10777;50.828;3.264;2022-08-03T05:32:39;14.18;;;4.40;;
21237;SDS011;10777;50.828;3.264;2022-08-03T05:35:05;17.50;;;4.75;;
21237;SDS011;10777;50.828;3.264;2022-08-03T05:37:31;16.58;;;4.45;;
21237;SDS011;10777;50.828;3.264;2022-08-03T05:39:57;11.93;;;3.50;;
21237;SDS011;10777;50.828;3.264;2022-08-03T05:42:23;10.10;;;3.45;;
21237;SDS011;10777;50.828;3.264;2022-08-03T05:44:48;14.38;;;3.17;;
21237;SDS011;10777;50.828;3.264;2022-08-03T05:47:14;13.50;;;2.97;;
21237;SDS011;10777;50.828;3.264;2022-08-03T05:49:41;13.27;;;2.80;;
21237;SDS011;10777;50.828;3.264;2022-08-03T05:52:07;18.80;;;2.83;;
21237;SDS011;10777;50.828;3.264;2022-08-03T05:54:32;10.63;;;2.90;;
21237;SDS011;10777;50.828;3.264;2022-08-03T05:56:58;8.85;;;2.67;;
21237;SDS011;10777;50.828;3.264;2022-08-03T05:59:24;9.25;;;2.92;;
21237;SDS011;10777;50.828;3.264;2022-08-03T06:01:50;24.60;;;2.88;;
21237;SDS011;10777;50.828;3.264;2022-08-03T06:04:15;9.90;;;2.17;;
21237;SDS011;10777;50.828;3.264;2022-08-03T06:06:41;10.82;;;2.63;;
21237;SDS011;10777;50.828;3.264;2022-08-03T06:09:07;11.60;;;2.80;;
21237;SDS011;10777;50.828;3.264;2022-08-03T06:11:34;18.20;;;2.70;;
21237;SDS011;10777;50.828;3.264;2022-08-03T06:14:00;14.38;;;2.97;;
21237;SDS011;10777;50.828;3.264;2022-08-03T06:16:26;15.77;;;3.13;;
21237;SDS011;10777;50.828;3.264;2022-08-03T06:18:52;13.52;;;3.70;;
21237;SDS011;10777;50.828;3.264;2022-08-03T06:21:18;15.60;;;2.83;;
21237;SDS011;10777;50.828;3.264;2022-08-03T06:23:44;8.70;;;2.40;;
21237;SDS011;10777;50.828;3.264;2022-08-03T06:26:10;15.30;;;3.00;;
21237;SDS011;10777;50.828;3.264;2022-08-03T06:28:35;20.77;;;3.30;;
21237;SDS011;10777;50.828;3.264;2022-08-03T06:31:01;10.65;;;3.13;;
21237;SDS011;10777;50.828;3.264;2022-08-03T06:33:27;15.38;;;2.03;;
21237;SDS011;10777;50.828;3.264;2022-08-03T06:35:53;19.25;;;2.70;;
21237;SDS011;10777;50.828;3.264;2022-08-03T06:38:19;12.48;;;2.50;;
21237;SDS011;10777;50.828;3.264;2022-08-03T06:40:45;13.30;;;2.33;;
21237;SDS011;10777;50.828;3.264;2022-08-03T06:43:10;18.33;;;2.55;;
21237;SDS011;10777;50.828;3.264;2022-08-03T06:45:37;13.93;;;2.20;;
21237;SDS011;10777;50.828;3.264;2022-08-03T06:48:04;14.32;;;2.33;;
21237;SDS011;10777;50.828;3.264;2022-08-03T06:50:32;22.90;;;3.55;;
21237;SDS011;10777;50.828;3.264;2022-08-03T06:52:59;13.82;;;2.30;;
21237;SDS011;10777;50.828;3.264;2022-08-03T06:55:26;15.55;;;3.15;;
21237;SDS011;10777;50.828;3.264;2022-08-03T06:57:52;22.48;;;2.92;;
21237;SDS011;10777;50.828;3.264;2022-08-03T07:00:18;19.85;;;2.92;;
21237;SDS011;10777;50.828;3.264;2022-08-03T07:02:44;13.38;;;2.50;;
21237;SDS011;10777;50.828;3.264;2022-08-03T07:05:10;13.25;;;2.40;;
21237;SDS011;10777;50.828;3.264;2022-08-03T07:07:37;17.67;;;3.35;;
21237;SDS011;10777;50.828;3.264;2022-08-03T07:10:03;17.65;;;3.33;;
21237;SDS011;10777;50.828;3.264;2022-08-03T07:12:30;15.75;;;3.00;;
21237;SDS011;10777;50.828;3.264;2022-08-03T07:14:56;15.40;;;3.03;;
21237;SDS011;10777;50.828;3.264;2022-08-03T07:17:23;18.70;;;3.05;;
21237;SDS011;10777;50.828;3.264;2022-08-03T07:19:49;20.08;;;2.90;;
21237;SDS011;10777;50.828;3.264;2022-08-03T07:22:15;19.30;;;3.40;;
21237;SDS011;10777;50.828;3.264;2022-08-03T07:24:41;16.35;;;3.28;;
21237;SDS011;10777;50.828;3.264;2022-08-03T07:27:07;16.30;;;2.67;;
21237;SDS011;10777;50.828;3.264;2022-08-03T07:29:34;27.52;;;3.47;;
21237;SDS011;10777;50.828;3.264;2022-08-03T07:32:00;16.08;;;2.75;;
21237;SDS011;10777;50.828;3.264;2022-08-03T07:34:26;19.90;;;2.65;;
21237;SDS011;10777;50.828;3.264;2022-08-03T07:36:52;20.83;;;3.13;;
21237;SDS011;10777;50.828;3.264;2022-08-03T07:39:18;12.25;;;2.20;;
21237;SDS011;10777;50.828;3.264;2022-08-03T07:41:44;19.17;;;2.95;;
21237;SDS011;10777;50.828;3.264;2022-08-03T07:44:10;13.38;;;2.10;;
21237;SDS011;10777;50.828;3.264;2022-08-03T07:46:35;23.67;;;2.83;;
21237;SDS011;10777;50.828;3.264;2022-08-03T07:49:01;16.13;;;3.03;;
21237;SDS011;10777;50.828;3.264;2022-08-03T07:51:27;12.25;;;1.98;;
21237;SDS011;10777;50.828;3.264;2022-08-03T07:53:53;16.08;;;2.25;;
21237;SDS011;10777;50.828;3.264;2022-08-03T07:56:21;17.50;;;2.60;;
21237;SDS011;10777;50.828;3.264;2022-08-03T07:58:51;12.68;;;2.53;;
21237;SDS011;10777;50.828;3.264;2022-08-03T08:01:22;15.57;;;2.55;;
21237;SDS011;10777;50.828;3.264;2022-08-03T08:03:48;16.25;;;2.40;;
21237;SDS011;10777;50.828;3.264;2022-08-03T08:06:15;19.65;;;2.95;;
21237;SDS011;10777;50.828;3.264;2022-08-03T08:08:41;19.33;;;2.95;;
21237;SDS011;10777;50.828;3.264;2022-08-03T08:11:07;13.57;;;1.98;;
21237;SDS011;10777;50.828;3.264;2022-08-03T08:13:33;20.33;;;2.53;;
21237;SDS011;10777;50.828;3.264;2022-08-03T08:15:59;18.65;;;2.65;;
21237;SDS011;10777;50.828;3.264;2022-08-03T08:18:25;18.05;;;2.42;;
21237;SDS011;10777;50.828;3.264;2022-08-03T08:20:53;17.63;;;2.47;;
21237;SDS011;10777;50.828;3.264;2022-08-03T08:23:20;13.30;;;2.40;;
21237;SDS011;10777;50.828;3.264;2022-08-03T08:25:49;14.55;;;2.67;;
21237;SDS011;10777;50.828;3.264;2022-08-03T08:28:19;21.95;;;2.67;;
21237;SDS011;10777;50.828;3.264;2022-08-03T08:30:45;13.68;;;2.30;;
21237;SDS011;10777;50.828;3.264;2022-08-03T08:33:12;16.40;;;2.70;;
21237;SDS011;10777;50.828;3.264;2022-08-03T08:35:38;16.38;;;2.65;;
21237;SDS011;10777;50.828;3.264;2022-08-03T08:38:04;16.27;;;2.58;;
21237;SDS011;10777;50.828;3.264;2022-08-03T08:40:30;15.45;;;2.58;;
21237;SDS011;10777;50.828;3.264;2022-08-03T08:42:57;13.38;;;2.10;;
21237;SDS011;10777;50.828;3.264;2022-08-03T08:45:23;13.50;;;2.13;;
21237;SDS011;10777;50.828;3.264;2022-08-03T08:47:49;15.18;;;2.53;;
21237;SDS011;10777;50.828;3.264;2022-08-03T08:50:17;14.90;;;2.13;;
21237;SDS011;10777;50.828;3.264;2022-08-03T08:52:45;18.05;;;2.97;;
21237;SDS011;10777;50.828;3.264;2022-08-03T08:55:13;12.85;;;2.38;;
21237;SDS011;10777;50.828;3.264;2022-08-03T08:57:46;18.27;;;3.15;;
21237;SDS011;10777;50.828;3.264;2022-08-03T09:00:14;11.98;;;3.22;;
21237;SDS011;10777;50.828;3.264;2022-08-03T09:02:41;17.80;;;5.18;;
21237;SDS011;10777;50.828;3.264;2022-08-03T09:05:09;11.25;;;2.08;;
21237;SDS011;10777;50.828;3.264;2022-08-03T09:07:40;15.73;;;2.38;;
21237;SDS011;10777;50.828;3.264;2022-08-03T09:10:07;14.18;;;2.35;;
21237;SDS011;10777;50.828;3.264;2022-08-03T09:12:38;33.83;;;6.65;;
21237;SDS011;10777;50.828;3.264;2022-08-03T09:15:23;10.65;;;2.13;;
21237;SDS011;10777;50.828;3.264;2022-08-03T09:17:51;19.10;;;2.53;;
21237;SDS011;10777;50.828;3.264;2022-08-03T09:20:20;17.30;;;2.70;;
21237;SDS011;10777;50.828;3.264;2022-08-03T09:22:52;20.33;;;2.70;;
21237;SDS011;10777;50.828;3.264;2022-08-03T09:25:29;11.45;;;2.13;;
21237;SDS011;10777;50.828;3.264;2022-08-03T09:28:09;16.27;;;2.55;;
21237;SDS011;10777;50.828;3.264;2022-08-03T09:30:37;16.08;;;2.00;;
21237;SDS011;10777;50.828;3.264;2022-08-03T09:33:05;20.50;;;2.38;;
21237;SDS011;10777;50.828;3.264;2022-08-03T09:35:41;19.75;;;2.42;;
21237;SDS011;10777;50.828;3.264;2022-08-03T09:38:09;13.27;;;2.08;;
21237;SDS011;10777;50.828;3.264;2022-08-03T09:40:36;13.65;;;2.90;;
21237;SDS011;10777;50.828;3.264;2022-08-03T09:43:02;14.95;;;2.55;;
21237;SDS011;10777;50.828;3.264;2022-08-03T09:45:28;16.65;;;3.33;;
21237;SDS011;10777;50.828;3.264;2022-08-03T09:47:54;13.57;;;1.90;;
21237;SDS011;10777;50.828;3.264;2022-08-03T09:50:21;11.60;;;2.25;;
21237;SDS011;10777;50.828;3.264;2022-08-03T09:52:47;8.35;;;1.85;;
21237;SDS011;10777;50.828;3.264;2022-08-03T09:55:15;12.43;;;2.20;;
21237;SDS011;10777;50.828;3.264;2022-08-03T09:57:44;12.70;;;2.00;;
21237;SDS011;10777;50.828;3.264;2022-08-03T10:00:11;12.48;;;1.70;;
21237;SDS011;10777;50.828;3.264;2022-08-03T10:02:40;16.95;;;2.42;;
21237;SDS011;10777;50.828;3.264;2022-08-03T10:05:08;7.93;;;1.90;;
21237;SDS011;10777;50.828;3.264;2022-08-03T10:07:46;15.15;;;2.70;;
21237;SDS011;10777;50.828;3.264;2022-08-03T10:10:13;11.23;;;1.50;;
21237;SDS011;10777;50.828;3.264;2022-08-03T10:12:41;21.20;;;3.75;;
21237;SDS011;10777;50.828;3.264;2022-08-03T10:15:08;11.95;;;2.28;;
21237;SDS011;10777;50.828;3.264;2022-08-03T10:17:34;12.65;;;1.83;;
21237;SDS011;10777;50.828;3.264;2022-08-03T10:20:01;11.95;;;2.50;;
21237;SDS011;10777;50.828;3.264;2022-08-03T10:22:29;9.48;;;1.85;;
21237;SDS011;10777;50.828;3.264;2022-08-03T10:24:59;12.40;;;1.83;;
21237;SDS011;10777;50.828;3.264;2022-08-03T10:27:30;11.82;;;1.40;;
21237;SDS011;10777;50.828;3.264;2022-08-03T10:30:01;9.18;;;1.77;;
21237;SDS011;10777;50.828;3.264;2022-08-03T10:32:33;14.63;;;2.83;;
21237;SDS011;10777;50.828;3.264;2022-08-03T10:35:06;8.10;;;2.05;;
21237;SDS011;10777;50.828;3.264;2022-08-03T10:37:36;12.45;;;2.17;;
21237;SDS011;10777;50.828;3.264;2022-08-03T10:40:07;14.50;;;2.00;;
21237;SDS011;10777;50.828;3.264;2022-08-03T10:42:36;13.90;;;1.92;;
21237;SDS011;10777;50.828;3.264;2022-08-03T10:45:05;10.40;;;1.85;;
21237;SDS011;10777;50.828;3.264;2022-08-03T10:47:37;9.80;;;2.30;;
21237;SDS011;10777;50.828;3.264;2022-08-03T10:50:04;9.82;;;2.00;;
21237;SDS011;10777;50.828;3.264;2022-08-03T10:52:32;9.40;;;1.83;;
21237;SDS011;10777;50.828;3.264;2022-08-03T10:54:57;13.35;;;2.28;;
21237;SDS011;10777;50.828;3.264;2022-08-03T10:57:51;13.95;;;1.90;;
21237;SDS011;10777;50.828;3.264;2022-08-03T11:00:19;11.32;;;1.77;;
21237;SDS011;10777;50.828;3.264;2022-08-03T11:05:35;5.13;;;1.70;;
21237;SDS011;10777;50.828;3.264;2022-08-03T11:08:22;14.77;;;2.17;;
21237;SDS011;10777;50.828;3.264;2022-08-03T11:10:59;15.90;;;1.98;;
21237;SDS011;10777;50.828;3.264;2022-08-03T11:13:28;7.22;;;2.17;;
21237;SDS011;10777;50.828;3.264;2022-08-03T11:15:56;13.00;;;1.63;;
21237;SDS011;10777;50.828;3.264;2022-08-03T11:18:23;9.77;;;1.48;;
21237;SDS011;10777;50.828;3.264;2022-08-03T11:20:51;11.18;;;1.90;;
21237;SDS011;10777;50.828;3.264;2022-08-03T11:23:39;8.60;;;2.20;;
21237;SDS011;10777;50.828;3.264;2022-08-03T11:26:10;5.47;;;1.50;;
21237;SDS011;10777;50.828;3.264;2022-08-03T11:28:46;14.00;;;2.45;;
21237;SDS011;10777;50.828;3.264;2022-08-03T11:34:15;10.68;;;1.50;;
21237;SDS011;10777;50.828;3.264;2022-08-03T11:39:47;9.23;;;1.42;;
21237;SDS011;10777;50.828;3.264;2022-08-03T11:45:02;13.48;;;1.45;;
21237;SDS011;10777;50.828;3.264;2022-08-03T11:47:34;4.90;;;1.55;;
21237;SDS011;10777;50.828;3.264;2022-08-03T11:50:02;10.80;;;1.30;;
21237;SDS011;10777;50.828;3.264;2022-08-03T11:52:36;10.00;;;1.52;;
21237;SDS011;10777;50.828;3.264;2022-08-03T11:55:07;12.45;;;1.73;;
21237;SDS011;10777;50.828;3.264;2022-08-03T11:57:34;7.10;;;1.83;;
21237;SDS011;10777;50.828;3.264;2022-08-03T12:00:00;5.97;;;1.30;;
21237;SDS011;10777;50.828;3.264;2022-08-03T12:02:26;5.93;;;1.55;;
21237;SDS011;10777;50.828;3.264;2022-08-03T12:04:52;6.88;;;1.60;;
21237;SDS011;10777;50.828;3.264;2022-08-03T12:07:26;10.45;;;1.23;;
21237;SDS011;10777;50.828;3.264;2022-08-03T12:10:10;16.27;;;2.20;;
21237;SDS011;10777;50.828;3.264;2022-08-03T12:12:38;8.93;;;1.50;;
21237;SDS011;10777;50.828;3.264;2022-08-03T12:15:05;14.48;;;1.73;;
21237;SDS011;10777;50.828;3.264;2022-08-03T12:17:35;7.32;;;1.23;;
21237;SDS011;10777;50.828;3.264;2022-08-03T12:20:03;9.60;;;1.60;;
21237;SDS011;10777;50.828;3.264;2022-08-03T12:22:31;6.50;;;1.40;;
21237;SDS011;10777;50.828;3.264;2022-08-03T12:24:59;11.18;;;2.00;;
21237;SDS011;10777;50.828;3.264;2022-08-03T12:27:25;7.20;;;1.40;;
21237;SDS011;10777;50.828;3.264;2022-08-03T12:29:55;8.40;;;1.23;;
21237;SDS011;10777;50.828;3.264;2022-08-03T12:32:22;5.97;;;1.52;;
21237;SDS011;10777;50.828;3.264;2022-08-03T12:34:50;9.35;;;1.60;;
21237;SDS011;10777;50.828;3.264;2022-08-03T12:37:17;5.85;;;1.33;;
21237;SDS011;10777;50.828;3.264;2022-08-03T12:39:52;9.93;;;1.63;;
21237;SDS011;10777;50.828;3.264;2022-08-03T12:42:20;9.88;;;1.48;;
21237;SDS011;10777;50.828;3.264;2022-08-03T12:44:46;8.77;;;1.23;;
21237;SDS011;10777;50.828;3.264;2022-08-03T12:47:13;9.38;;;1.23;;
21237;SDS011;10777;50.828;3.264;2022-08-03T12:49:48;4.30;;;1.00;;
21237;SDS011;10777;50.828;3.264;2022-08-03T12:52:17;8.43;;;1.40;;
21237;SDS011;10777;50.828;3.264;2022-08-03T12:54:59;6.10;;;1.55;;
21237;SDS011;10777;50.828;3.264;2022-08-03T12:57:39;6.80;;;1.80;;
21237;SDS011;10777;50.828;3.264;2022-08-03T13:00:14;11.52;;;1.88;;
21237;SDS011;10777;50.828;3.264;2022-08-03T13:02:41;9.82;;;1.33;;
21237;SDS011;10777;50.828;3.264;2022-08-03T13:05:09;5.93;;;1.65;;
21237;SDS011;10777;50.828;3.264;2022-08-03T13:07:43;10.63;;;1.73;;
21237;SDS011;10777;50.828;3.264;2022-08-03T13:10:10;5.97;;;1.60;;
21237;SDS011;10777;50.828;3.264;2022-08-03T13:12:45;7.00;;;1.45;;
21237;SDS011;10777;50.828;3.264;2022-08-03T13:15:12;8.00;;;2.35;;
21237;SDS011;10777;50.828;3.264;2022-08-03T13:17:38;9.13;;;1.30;;
21237;SDS011;10777;50.828;3.264;2022-08-03T13:20:04;7.30;;;1.38;;
21237;SDS011;10777;50.828;3.264;2022-08-03T13:22:30;5.22;;;1.42;;
21237;SDS011;10777;50.828;3.264;2022-08-03T13:24:57;4.53;;;1.50;;
21237;SDS011;10777;50.828;3.264;2022-08-03T13:27:25;4.40;;;1.27;;
21237;SDS011;10777;50.828;3.264;2022-08-03T13:29:51;9.07;;;1.42;;
21237;SDS011;10777;50.828;3.264;2022-08-03T13:32:17;10.90;;;1.40;;
21237;SDS011;10777;50.828;3.264;2022-08-03T13:34:44;6.95;;;1.08;;
21237;SDS011;10777;50.828;3.264;2022-08-03T13:37:10;5.03;;;1.38;;
21237;SDS011;10777;50.828;3.264;2022-08-03T13:39:37;7.78;;;1.15;;
21237;SDS011;10777;50.828;3.264;2022-08-03T13:42:03;4.18;;;1.55;;
21237;SDS011;10777;50.828;3.264;2022-08-03T13:44:29;13.07;;;1.20;;
21237;SDS011;10777;50.828;3.264;2022-08-03T13:46:56;5.82;;;1.02;;
21237;SDS011;10777;50.828;3.264;2022-08-03T13:49:23;7.03;;;1.20;;
21237;SDS011;10777;50.828;3.264;2022-08-03T13:51:48;5.28;;;0.80;;
21237;SDS011;10777;50.828;3.264;2022-08-03T13:54:14;4.65;;;1.10;;
21237;SDS011;10777;50.828;3.264;2022-08-03T13:56:40;8.93;;;1.20;;
21237;SDS011;10777;50.828;3.264;2022-08-03T13:59:05;4.13;;;1.27;;
21237;SDS011;10777;50.828;3.264;2022-08-03T14:01:31;6.47;;;1.00;;
21237;SDS011;10777;50.828;3.264;2022-08-03T14:03:57;11.48;;;1.50;;
21237;SDS011;10777;50.828;3.264;2022-08-03T14:06:23;2.08;;;0.70;;
21237;SDS011;10777;50.828;3.264;2022-08-03T14:08:50;8.82;;;1.45;;
21237;SDS011;10777;50.828;3.264;2022-08-03T14:11:16;5.22;;;1.10;;
21237;SDS011;10777;50.828;3.264;2022-08-03T14:13:42;8.48;;;1.63;;
21237;SDS011;10777;50.828;3.264;2022-08-03T14:16:08;7.32;;;1.42;;
21237;SDS011;10777;50.828;3.264;2022-08-03T14:18:34;4.25;;;1.20;;
21237;SDS011;10777;50.828;3.264;2022-08-03T14:21:02;4.68;;;1.63;;
21237;SDS011;10777;50.828;3.264;2022-08-03T14:23:28;4.07;;;1.63;;
21237;SDS011;10777;50.828;3.264;2022-08-03T14:25:54;5.75;;;1.00;;
21237;SDS011;10777;50.828;3.264;2022-08-03T14:28:20;10.32;;;1.40;;
21237;SDS011;10777;50.828;3.264;2022-08-03T14:30:47;14.13;;;2.40;;
21237;SDS011;10777;50.828;3.264;2022-08-03T14:33:13;7.35;;;1.92;;
21237;SDS011;10777;50.828;3.264;2022-08-03T14:35:39;1.85;;;0.90;;
21237;SDS011;10777;50.828;3.264;2022-08-03T14:38:05;6.18;;;1.20;;
21237;SDS011;10777;50.828;3.264;2022-08-03T14:40:31;5.65;;;1.30;;
21237;SDS011;10777;50.828;3.264;2022-08-03T14:42:56;3.90;;;0.90;;
21237;SDS011;10777;50.828;3.264;2022-08-03T14:45:22;3.17;;;1.00;;
21237;SDS011;10777;50.828;3.264;2022-08-03T14:47:48;3.13;;;0.88;;
21237;SDS011;10777;50.828;3.264;2022-08-03T14:50:15;3.35;;;1.10;;
21237;SDS011;10777;50.828;3.264;2022-08-03T14:52:40;4.80;;;1.15;;
21237;SDS011;10777;50.828;3.264;2022-08-03T14:55:06;2.10;;;0.88;;
21237;SDS011;10777;50.828;3.264;2022-08-03T14:57:32;5.82;;;0.95;;
21237;SDS011;10777;50.828;3.264;2022-08-03T14:59:58;5.10;;;0.90;;
21237;SDS011;10777;50.828;3.264;2022-08-03T15:02:24;6.03;;;1.02;;